Time;durP1;ratioP1;P1;durP2;ratioP2;P2;SDS_P1;SDS_P2;PMS_P1;PMS_P2;Temp;Humidity;BMP_temperature;BMP_pressure;BME280_temperature;BME280_humidity;BME280_pressure;Samples;Min_cycle;Max_cycle;Signal;HPM_P1;HPM_P2
2023/08/26 00:00:39;;;;;;;6.63;4.60;;;25.50;52.30;;;;;;5113728;28;20528;-70
2023/08/26 00:03:05;;;;;;;6.53;4.82;;;25.50;52.30;;;;;;5113934;28;20023;-70
2023/08/26 00:05:30;;;;;;;7.43;4.53;;;25.50;52.30;;;;;;5112239;28;20063;-70
2023/08/26 00:07:56;;;;;;;6.03;4.50;;;25.50;52.30;;;;;;5112459;28;20032;-70
2023/08/26 00:10:22;;;;;;;6.00;4.20;;;25.50;52.30;;;;;;5114397;28;20073;-70
2023/08/26 00:12:48;;;;;;;7.20;4.68;;;25.50;52.30;;;;;;5115680;28;20043;-70
2023/08/26 00:15:14;;;;;;;8.40;4.88;;;25.50;52.40;;;;;;5117367;28;20070;-70
2023/08/26 00:17:40;;;;;;;6.55;4.75;;;25.50;52.30;;;;;;5117063;28;20462;-70
2023/08/26 00:20:08;;;;;;;7.22;4.75;;;25.40;52.20;;;;;;5117101;28;20128;-70
2023/08/26 00:22:34;;;;;;;5.45;4.20;;;25.40;52.30;;;;;;5116314;28;20059;-70
2023/08/26 00:24:59;;;;;;;6.35;4.18;;;25.30;52.30;;;;;;5115202;28;20035;-70
2023/08/26 00:27:25;;;;;;;5.85;4.05;;;25.30;52.40;;;;;;5116298;28;20049;-70
2023/08/26 00:29:51;;;;;;;5.97;4.60;;;25.30;52.40;;;;;;5117102;28;20035;-70
2023/08/26 00:32:16;;;;;;;6.95;4.75;;;25.30;52.40;;;;;;5116601;28;20035;-70
2023/08/26 00:34:43;;;;;;;6.50;4.53;;;25.30;52.40;;;;;;5117019;28;20028;-70
2023/08/26 00:37:09;;;;;;;6.05;4.38;;;25.30;52.40;;;;;;5116867;28;20061;-70
2023/08/26 00:39:35;;;;;;;7.57;4.78;;;25.20;52.40;;;;;;5116824;28;20393;-70
2023/08/26 00:42:01;;;;;;;7.43;4.57;;;25.20;52.40;;;;;;5116515;28;20024;-70
2023/08/26 00:44:26;;;;;;;7.18;4.90;;;25.20;52.40;;;;;;5116709;28;20439;-70
2023/08/26 00:46:52;;;;;;;7.32;4.78;;;25.10;52.50;;;;;;5115152;28;20047;-70
2023/08/26 00:49:18;;;;;;;7.20;4.40;;;25.10;52.60;;;;;;5115945;28;20072;-70
2023/08/26 00:51:44;;;;;;;6.78;5.20;;;25.00;52.60;;;;;;5114918;28;20023;-71
2023/08/26 00:54:11;;;;;;;4.53;3.70;;;25.00;52.70;;;;;;5116454;28;20035;-70
2023/08/26 00:56:37;;;;;;;5.95;4.28;;;25.00;52.80;;;;;;5115110;28;20028;-70
2023/08/26 00:59:02;;;;;;;6.60;4.30;;;25.00;52.80;;;;;;5116717;28;20031;-70
2023/08/26 01:01:31;;;;;;;5.43;4.05;;;25.00;52.80;;;;;;5116470;28;20032;-70
2023/08/26 01:03:57;;;;;;;5.60;4.25;;;25.00;52.80;;;;;;5114845;28;20024;-70
2023/08/26 01:06:23;;;;;;;5.88;4.05;;;25.00;52.80;;;;;;5115804;28;20539;-70
2023/08/26 01:08:50;;;;;;;6.45;4.10;;;25.00;52.90;;;;;;5116410;28;20020;-70
2023/08/26 01:11:28;;;;;;;6.13;4.28;;;25.00;52.80;;;;;;5115960;28;20031;-70
2023/08/26 01:14:29;;;;;;;5.57;4.05;;;25.00;52.90;;;;;;5115586;28;20031;-70
2023/08/26 01:16:57;;;;;;;5.70;3.88;;;25.00;53.00;;;;;;5114429;28;20054;-70
2023/08/26 01:19:37;;;;;;;5.75;3.70;;;25.00;52.80;;;;;;5115260;28;20032;-70
2023/08/26 01:22:06;;;;;;;5.78;4.20;;;25.00;52.80;;;;;;5116322;28;20068;-70
2023/08/26 01:24:34;;;;;;;5.68;4.03;;;24.80;52.70;;;;;;5115964;28;20116;-70
2023/08/26 01:27:00;;;;;;;5.57;4.00;;;24.80;52.90;;;;;;5115981;28;20035;-70
2023/08/26 01:29:26;;;;;;;4.95;3.83;;;24.90;53.00;;;;;;5115966;28;20106;-70
2023/08/26 01:32:08;;;;;;;5.78;3.65;;;24.90;53.00;;;;;;5114142;28;20063;-70
2023/08/26 01:34:37;;;;;;;4.55;3.58;;;24.90;53.00;;;;;;5095418;28;20077;-70
2023/08/26 01:37:04;;;;;;;6.25;3.65;;;24.90;52.80;;;;;;5094019;28;20024;-70
2023/08/26 01:39:30;;;;;;;5.55;3.17;;;25.00;52.90;;;;;;5093958;28;20056;-70
2023/08/26 01:41:56;;;;;;;5.65;3.22;;;25.00;52.80;;;;;;5095293;28;20070;-70
2023/08/26 01:44:23;;;;;;;4.22;3.20;;;25.00;52.80;;;;;;5094912;28;20028;-70
2023/08/26 01:46:48;;;;;;;3.88;3.05;;;25.00;52.80;;;;;;5102616;28;20130;-70
2023/08/26 01:49:14;;;;;;;5.07;3.30;;;25.10;52.80;;;;;;5114376;28;20519;-70
2023/08/26 01:51:40;;;;;;;4.32;3.20;;;25.10;52.70;;;;;;5115472;28;20027;-70
2023/08/26 01:54:06;;;;;;;4.03;2.90;;;25.10;52.70;;;;;;5113901;28;20028;-70
2023/08/26 01:56:32;;;;;;;4.07;3.00;;;25.10;52.60;;;;;;5115050;28;20480;-70
2023/08/26 01:58:58;;;;;;;4.32;3.03;;;25.10;52.50;;;;;;5115128;28;20032;-69
2023/08/26 02:01:24;;;;;;;4.75;3.20;;;25.10;52.50;;;;;;5115043;28;20037;-69
2023/08/26 02:03:49;;;;;;;3.88;3.05;;;25.20;52.60;;;;;;5115427;28;20389;-69
2023/08/26 02:06:15;;;;;;;5.43;2.80;;;25.20;52.50;;;;;;5115248;28;20039;-70
2023/08/26 02:08:41;;;;;;;4.30;3.10;;;25.20;52.50;;;;;;5115432;28;20433;-69
2023/08/26 02:11:06;;;;;;;4.00;2.70;;;25.20;52.40;;;;;;5114963;28;20038;-69
2023/08/26 02:13:32;;;;;;;3.67;3.13;;;25.10;52.40;;;;;;5113835;28;20099;-70
2023/08/26 02:15:58;;;;;;;3.88;2.90;;;25.10;52.30;;;;;;5113665;28;20069;-71
2023/08/26 02:18:23;;;;;;;4.20;3.17;;;25.00;52.30;;;;;;5115192;28;20053;-69
2023/08/26 02:20:49;;;;;;;3.50;2.72;;;25.00;52.50;;;;;;5114819;28;20047;-70
2023/08/26 02:23:15;;;;;;;4.28;2.60;;;25.00;52.60;;;;;;5114647;28;20028;-69
2023/08/26 02:25:41;;;;;;;4.45;2.92;;;25.00;52.60;;;;;;5114713;28;20091;-69
2023/08/26 02:28:07;;;;;;;6.60;2.80;;;25.00;52.60;;;;;;5113757;28;20491;-70
2023/08/26 02:30:34;;;;;;;3.53;2.80;;;25.00;52.60;;;;;;5114412;28;20114;-69
2023/08/26 02:33:00;;;;;;;3.97;2.80;;;25.00;52.50;;;;;;5112628;28;20024;-69
2023/08/26 02:35:26;;;;;;;3.97;2.80;;;25.00;52.50;;;;;;5114560;28;20061;-69
2023/08/26 02:37:52;;;;;;;6.18;3.15;;;25.00;52.50;;;;;;5114637;28;20107;-70
2023/08/26 02:40:18;;;;;;;3.63;2.60;;;25.00;52.50;;;;;;5113356;28;20020;-70
2023/08/26 02:42:44;;;;;;;3.38;2.42;;;25.00;52.50;;;;;;5113240;28;20027;-69
2023/08/26 02:45:09;;;;;;;4.45;2.80;;;25.00;52.50;;;;;;5113141;28;20034;-69
2023/08/26 02:47:35;;;;;;;3.83;2.88;;;25.00;52.50;;;;;;5114090;28;20032;-72
2023/08/26 02:50:02;;;;;;;2.80;2.50;;;25.00;52.60;;;;;;5114348;28;20126;-71
2023/08/26 02:52:27;;;;;;;3.55;2.60;;;25.00;52.60;;;;;;5114257;28;20072;-71
2023/08/26 02:54:53;;;;;;;2.58;2.38;;;25.10;52.60;;;;;;5114009;28;20420;-71
2023/08/26 02:57:19;;;;;;;3.50;2.60;;;25.10;52.60;;;;;;5113729;28;20028;-71
2023/08/26 02:59:45;;;;;;;3.13;2.40;;;25.10;52.50;;;;;;5114262;28;20072;-71
2023/08/26 03:02:11;;;;;;;4.10;2.80;;;25.20;52.50;;;;;;5114442;28;20020;-69
2023/08/26 03:04:36;;;;;;;2.78;2.33;;;25.20;52.50;;;;;;5113034;28;20530;-69
2023/08/26 03:07:02;;;;;;;3.60;2.55;;;25.20;52.50;;;;;;5113763;28;20023;-69
2023/08/26 03:09:29;;;;;;;2.90;2.40;;;25.30;52.50;;;;;;5114182;28;20465;-69
2023/08/26 03:11:55;;;;;;;3.92;2.97;;;25.30;52.50;;;;;;5113989;28;20023;-70
2023/08/26 03:14:21;;;;;;;3.13;2.42;;;25.30;52.40;;;;;;5113832;28;20039;-70
2023/08/26 03:16:47;;;;;;;3.15;2.50;;;25.40;52.50;;;;;;5114153;28;20027;-70
2023/08/26 03:19:12;;;;;;;3.58;2.92;;;25.40;52.40;;;;;;5112875;28;20031;-70
2023/08/26 03:21:38;;;;;;;3.25;2.63;;;25.40;52.40;;;;;;5113629;28;20383;-70
2023/08/26 03:24:05;;;;;;;3.35;2.70;;;25.40;52.40;;;;;;5113873;28;20114;-69
2023/08/26 03:26:30;;;;;;;5.07;3.00;;;25.40;52.40;;;;;;5113458;28;20031;-70
2023/08/26 03:28:56;;;;;;;3.58;2.60;;;25.40;52.30;;;;;;5112879;28;20080;-70
2023/08/26 03:31:22;;;;;;;4.57;2.50;;;25.50;52.30;;;;;;5114104;28;20024;-70
2023/08/26 03:33:47;;;;;;;2.92;2.50;;;25.50;52.30;;;;;;5113480;28;20035;-70
2023/08/26 03:36:13;;;;;;;4.43;2.83;;;25.50;52.30;;;;;;5113935;28;20034;-70
2023/08/26 03:38:38;;;;;;;3.58;2.67;;;25.50;52.20;;;;;;5113675;28;20030;-70
2023/08/26 03:41:05;;;;;;;4.25;2.35;;;25.50;52.20;;;;;;5113585;28;20020;-70
2023/08/26 03:43:31;;;;;;;4.70;3.22;;;25.50;52.20;;;;;;5113101;28;20027;-70
2023/08/26 03:45:57;;;;;;;4.05;3.05;;;25.50;52.20;;;;;;5115723;28;20505;-71
2023/08/26 03:48:23;;;;;;;5.15;3.38;;;25.50;52.10;;;;;;5117637;28;20055;-70
2023/08/26 03:50:53;;;;;;;3.58;2.80;;;25.50;52.10;;;;;;5117856;28;20023;-70
2023/08/26 03:53:19;;;;;;;4.07;3.00;;;25.50;52.20;;;;;;5117662;28;20024;-70
2023/08/26 03:55:45;;;;;;;3.33;2.78;;;25.50;52.20;;;;;;5117143;28;20508;-70
2023/08/26 03:58:12;;;;;;;4.10;2.72;;;25.50;52.10;;;;;;5116392;28;20020;-70
2023/08/26 04:00:38;;;;;;;5.60;2.83;;;25.60;52.20;;;;;;5117863;28;20034;-70
2023/08/26 04:03:05;;;;;;;3.28;2.50;;;25.60;52.20;;;;;;5117167;28;20040;-70
2023/08/26 04:05:31;;;;;;;3.92;2.95;;;25.60;52.20;;;;;;5116226;28;20096;-70
2023/08/26 04:07:57;;;;;;;3.05;2.60;;;25.60;52.20;;;;;;5117404;28;20038;-70
2023/08/26 04:10:23;;;;;;;5.25;2.92;;;25.60;52.20;;;;;;5115826;28;20031;-69
2023/08/26 04:12:48;;;;;;;3.65;2.67;;;25.60;52.80;;;;;;5117798;28;20476;-69
2023/08/26 04:15:14;;;;;;;3.38;2.80;;;25.60;52.20;;;;;;5116666;28;20130;-69
2023/08/26 04:17:41;;;;;;;4.38;3.15;;;25.60;52.20;;;;;;5114495;28;20049;-69
2023/08/26 04:20:08;;;;;;;4.57;3.25;;;25.70;52.20;;;;;;5116775;27;20039;-69
2023/08/26 04:22:34;;;;;;;4.28;2.97;;;25.70;52.20;;;;;;5116994;28;20024;-70
2023/08/26 04:24:59;;;;;;;3.42;2.75;;;25.70;52.20;;;;;;5116893;28;20028;-70
2023/08/26 04:27:25;;;;;;;3.50;2.80;;;25.70;52.20;;;;;;5116621;28;20035;-70
2023/08/26 04:29:51;;;;;;;3.97;2.70;;;25.70;52.10;;;;;;5117013;28;20028;-70
2023/08/26 04:32:17;;;;;;;3.17;2.70;;;25.70;52.10;;;;;;5116796;28;20034;-70
2023/08/26 04:34:43;;;;;;;3.20;2.60;;;25.80;52.20;;;;;;5116671;28;20030;-70
2023/08/26 04:37:09;;;;;;;4.28;2.80;;;25.70;52.10;;;;;;5116720;28;20373;-70
2023/08/26 04:39:35;;;;;;;4.22;2.58;;;25.80;52.20;;;;;;5116570;28;20024;-70
2023/08/26 04:42:01;;;;;;;5.10;2.83;;;25.80;52.20;;;;;;5114608;28;20104;-71
2023/08/26 04:44:26;;;;;;;4.22;2.90;;;25.80;52.20;;;;;;5116345;28;20043;-71
2023/08/26 04:46:55;;;;;;;5.00;2.90;;;25.80;52.30;;;;;;5116580;28;20028;-69
2023/08/26 04:49:21;;;;;;;3.33;2.97;;;25.80;52.40;;;;;;5115254;28;20055;-70
2023/08/26 04:51:54;;;;;;;2.92;2.63;;;25.80;52.40;;;;;;5116450;28;20058;-70
2023/08/26 04:54:20;;;;;;;5.53;3.10;;;25.80;52.60;;;;;;5115341;28;20114;-69
2023/08/26 04:56:46;;;;;;;3.45;2.60;;;25.80;52.70;;;;;;5116291;28;20448;-69
2023/08/26 04:59:12;;;;;;;5.93;3.63;;;25.80;52.80;;;;;;5114178;28;20062;-71
2023/08/26 05:01:38;;;;;;;16.83;12.70;;;25.70;52.80;;;;;;5116272;28;20052;-70
2023/08/26 05:04:04;;;;;;;11.57;9.43;;;25.70;52.90;;;;;;5114561;28;20089;-69
2023/08/26 05:06:30;;;;;;;7.70;6.53;;;25.70;53.00;;;;;;5115501;28;20481;-69
2023/08/26 05:08:55;;;;;;;11.65;8.00;;;25.70;53.00;;;;;;5116241;28;20111;-70
2023/08/26 05:11:21;;;;;;;9.45;7.93;;;25.70;53.10;;;;;;5114874;28;20034;-69
2023/08/26 05:13:47;;;;;;;10.35;7.10;;;25.70;53.10;;;;;;5116180;28;20106;-70
2023/08/26 05:16:12;;;;;;;7.43;5.72;;;25.80;53.20;;;;;;5116167;28;20026;-70
2023/08/26 05:18:38;;;;;;;6.85;5.47;;;25.90;53.20;;;;;;5116101;28;20024;-70
2023/08/26 05:21:04;;;;;;;5.80;4.97;;;25.90;53.20;;;;;;5113237;28;20048;-69
2023/08/26 05:23:30;;;;;;;6.07;4.65;;;26.00;53.10;;;;;;5114053;28;20028;-70
2023/08/26 05:25:56;;;;;;;6.80;4.18;;;26.00;53.00;;;;;;5115628;28;20034;-70
2023/08/26 05:28:21;;;;;;;4.72;3.90;;;26.10;53.00;;;;;;5115438;28;20032;-69
2023/08/26 05:30:47;;;;;;;4.00;3.60;;;26.10;52.90;;;;;;5115117;28;20033;-70
2023/08/26 05:33:13;;;;;;;4.93;3.40;;;26.20;52.90;;;;;;5114473;28;20028;-70
2023/08/26 05:35:39;;;;;;;4.03;2.97;;;26.20;52.70;;;;;;5115085;28;20027;-70
2023/08/26 05:38:04;;;;;;;4.90;3.50;;;26.30;52.70;;;;;;5115182;28;20088;-70
2023/08/26 05:40:30;;;;;;;3.22;2.83;;;26.30;52.60;;;;;;5115788;28;20030;-70
2023/08/26 05:42:56;;;;;;;4.03;3.00;;;26.40;52.60;;;;;;5114157;28;20111;-70
2023/08/26 05:45:22;;;;;;;3.50;2.80;;;26.40;52.40;;;;;;5115105;28;20031;-69
2023/08/26 05:47:48;;;;;;;4.40;2.90;;;26.40;52.30;;;;;;5115262;28;20031;-69
2023/08/26 05:50:13;;;;;;;3.33;2.65;;;26.50;52.40;;;;;;5115265;28;20096;-70
2023/08/26 05:52:39;;;;;;;2.90;2.50;;;26.50;52.30;;;;;;5114662;28;20051;-71
2023/08/26 05:55:05;;;;;;;3.40;2.85;;;26.50;52.30;;;;;;5115447;28;20065;-69
2023/08/26 05:57:31;;;;;;;3.00;2.45;;;26.50;52.30;;;;;;5114027;28;20023;-69
2023/08/26 05:59:56;;;;;;;3.45;2.75;;;26.50;52.20;;;;;;5114006;28;20072;-70
2023/08/26 06:02:22;;;;;;;2.95;2.30;;;26.60;52.20;;;;;;5115059;28;20077;-70
2023/08/26 06:04:48;;;;;;;3.20;2.45;;;26.60;52.10;;;;;;5114141;28;20048;-70
2023/08/26 06:07:13;;;;;;;2.38;2.17;;;26.60;52.00;;;;;;5113608;28;20067;-70
2023/08/26 06:09:39;;;;;;;4.57;2.03;;;26.70;52.00;;;;;;5113463;28;20472;-70
2023/08/26 06:12:05;;;;;;;2.60;2.20;;;26.70;51.90;;;;;;5114713;28;20034;-69
2023/08/26 06:14:31;;;;;;;2.20;2.00;;;26.80;51.90;;;;;;5113871;28;20484;-70
2023/08/26 06:16:56;;;;;;;3.03;1.98;;;26.80;51.80;;;;;;5114938;28;20095;-70
2023/08/26 06:19:22;;;;;;;3.03;2.15;;;26.90;51.80;;;;;;5114569;28;20019;-70
2023/08/26 06:21:48;;;;;;;3.25;2.10;;;26.90;51.70;;;;;;5113103;28;20108;-71
2023/08/26 06:24:13;;;;;;;2.40;2.13;;;26.90;51.60;;;;;;5113657;28;20032;-69
2023/08/26 06:26:39;;;;;;;2.47;2.28;;;27.00;51.50;;;;;;5113510;28;20024;-70
2023/08/26 06:29:05;;;;;;;2.97;2.30;;;27.00;51.50;;;;;;5114503;28;20073;-69
2023/08/26 06:31:30;;;;;;;2.72;2.10;;;27.00;51.50;;;;;;5114490;28;20027;-70
2023/08/26 06:33:58;;;;;;;2.30;1.92;;;27.00;51.40;;;;;;5112192;28;20031;-71
2023/08/26 06:36:23;;;;;;;2.50;2.30;;;27.10;51.40;;;;;;5112464;28;20354;-70
2023/08/26 06:38:49;;;;;;;2.72;2.22;;;27.10;51.30;;;;;;5114382;28;20019;-69
2023/08/26 06:41:15;;;;;;;2.20;1.95;;;27.10;51.20;;;;;;5114335;28;20059;-69
2023/08/26 06:43:40;;;;;;;2.63;2.20;;;27.10;51.20;;;;;;5114185;28;20110;-71
2023/08/26 06:46:06;;;;;;;3.92;2.20;;;27.20;51.30;;;;;;5114087;28;20034;-69
2023/08/26 06:48:31;;;;;;;2.22;2.03;;;27.10;51.10;;;;;;5112283;28;20031;-71
2023/08/26 06:50:57;;;;;;;4.03;2.30;;;27.20;51.20;;;;;;5111935;28;20057;-70
2023/08/26 06:53:23;;;;;;;2.33;2.10;;;27.20;51.10;;;;;;5113608;28;20485;-69
2023/08/26 06:55:50;;;;;;;3.05;2.40;;;27.20;51.10;;;;;;5113507;28;20031;-70
2023/08/26 06:58:16;;;;;;;3.53;2.13;;;27.20;51.00;;;;;;5114295;28;20074;-71
2023/08/26 07:00:42;;;;;;;2.67;2.13;;;27.30;51.10;;;;;;5114048;28;20023;-70
2023/08/26 07:03:09;;;;;;;2.30;2.10;;;27.30;51.10;;;;;;5112277;28;20472;-70
2023/08/26 07:05:41;;;;;;;2.50;2.00;;;27.30;51.00;;;;;;5111986;28;20042;-71
2023/08/26 07:08:07;;;;;;;2.20;2.00;;;27.30;51.00;;;;;;5114044;28;20034;-71
2023/08/26 07:10:32;;;;;;;2.65;1.92;;;27.30;51.00;;;;;;5113837;28;20095;-70
2023/08/26 07:12:58;;;;;;;2.78;2.30;;;27.40;51.10;;;;;;5114016;28;20031;-71
2023/08/26 07:15:24;;;;;;;2.35;1.90;;;27.40;50.90;;;;;;5112604;28;20032;-70
2023/08/26 07:17:49;;;;;;;2.42;2.08;;;27.40;50.90;;;;;;5113988;28;20107;-70
2023/08/26 07:20:15;;;;;;;2.90;1.90;;;27.50;50.90;;;;;;5117013;28;20103;-71
2023/08/26 07:22:41;;;;;;;2.30;2.10;;;27.50;50.90;;;;;;5118847;28;20406;-70
2023/08/26 07:25:08;;;;;;;2.65;2.05;;;27.50;50.80;;;;;;5118457;28;20027;-70
2023/08/26 07:27:34;;;;;;;2.63;2.10;;;27.60;50.90;;;;;;5118115;28;20027;-70
2023/08/26 07:30:00;;;;;;;2.15;1.95;;;27.60;50.80;;;;;;5117535;28;20023;-72
2023/08/26 07:32:26;;;;;;;2.08;1.88;;;27.60;50.70;;;;;;5117738;28;20492;-70
2023/08/26 07:34:52;;;;;;;3.00;2.20;;;27.70;50.80;;;;;;5117306;28;20071;-70
2023/08/26 07:37:18;;;;;;;4.28;2.40;;;27.70;50.80;;;;;;5117016;28;20096;-70
2023/08/26 07:39:44;;;;;;;2.72;2.20;;;27.70;50.70;;;;;;5136231;27;20046;-70
2023/08/26 07:42:09;;;;;;;3.13;2.22;;;27.80;50.70;;;;;;5117835;28;20446;-70
2023/08/26 07:44:35;;;;;;;4.63;2.35;;;27.80;50.50;;;;;;5117017;28;20409;-70
2023/08/26 07:47:01;;;;;;;3.58;2.55;;;27.90;50.40;;;;;;5117640;28;20454;-70
2023/08/26 07:49:26;;;;;;;3.85;2.50;;;28.00;50.30;;;;;;5116496;28;20027;-70
2023/08/26 07:51:52;;;;;;;3.90;2.30;;;28.10;50.20;;;;;;5117696;28;20032;-70
2023/08/26 07:54:17;;;;;;;2.95;2.30;;;28.10;50.20;;;;;;5116316;28;20115;-70
2023/08/26 07:56:43;;;;;;;2.80;2.40;;;28.20;50.10;;;;;;5116661;28;20027;-70
2023/08/26 07:59:09;;;;;;;3.92;2.58;;;28.30;50.10;;;;;;5117242;28;20134;-71
2023/08/26 08:01:34;;;;;;;4.28;2.92;;;28.30;50.00;;;;;;5117094;28;20024;-70
2023/08/26 08:04:00;;;;;;;6.53;2.67;;;28.30;50.00;;;;;;5116469;28;20019;-71
2023/08/26 08:06:26;;;;;;;3.45;2.88;;;28.20;50.00;;;;;;5116453;28;20427;-70
2023/08/26 08:08:51;;;;;;;3.40;2.60;;;28.20;50.00;;;;;;5116412;28;20020;-70
2023/08/26 08:11:17;;;;;;;3.38;2.60;;;28.20;50.00;;;;;;5117068;28;20089;-70
2023/08/26 08:13:43;;;;;;;4.35;2.53;;;28.20;50.00;;;;;;5115064;28;20891;-69
2023/08/26 08:16:08;;;;;;;4.40;2.22;;;28.10;50.00;;;;;;5116584;28;20385;-72
2023/08/26 08:18:34;;;;;;;3.50;2.40;;;28.10;50.10;;;;;;5116848;28;20024;-71
2023/08/26 08:20:59;;;;;;;4.97;2.42;;;28.00;50.10;;;;;;5117165;28;20050;-72
2023/08/26 08:23:25;;;;;;;5.28;2.10;;;27.90;50.10;;;;;;5117356;28;20531;-71
2023/08/26 08:25:51;;;;;;;3.40;2.33;;;27.90;50.30;;;;;;5116075;27;20469;-71
2023/08/26 08:28:17;;;;;;;3.08;2.20;;;27.90;50.30;;;;;;5116101;28;20023;-69
2023/08/26 08:30:42;;;;;;;2.55;2.35;;;27.90;50.40;;;;;;5115280;28;20458;-70
2023/08/26 08:33:08;;;;;;;2.88;2.55;;;27.80;50.40;;;;;;5116491;28;20031;-70
2023/08/26 08:35:34;;;;;;;2.90;2.60;;;27.90;50.40;;;;;;5116257;28;20023;-71
2023/08/26 08:37:59;;;;;;;3.22;2.63;;;27.90;50.40;;;;;;5116318;28;20043;-71
2023/08/26 08:40:25;;;;;;;3.65;3.17;;;27.90;50.40;;;;;;5114541;28;20031;-71
2023/08/26 08:42:54;;;;;;;3.42;2.90;;;27.90;50.40;;;;;;5116510;27;20028;-71
2023/08/26 08:45:21;;;;;;;3.25;2.50;;;27.90;50.40;;;;;;5104841;28;20067;-70
2023/08/26 08:47:47;;;;;;;3.10;2.65;;;27.90;50.40;;;;;;5115310;28;20031;-69
2023/08/26 08:50:14;;;;;;;2.83;2.42;;;27.90;50.50;;;;;;5100341;28;20028;-70
2023/08/26 08:52:43;;;;;;;2.42;2.22;;;27.90;50.50;;;;;;5096135;28;20056;-69
2023/08/26 08:55:08;;;;;;;2.70;2.20;;;27.90;50.50;;;;;;5095820;28;20141;-69
2023/08/26 08:57:35;;;;;;;2.30;2.10;;;27.90;50.50;;;;;;5107570;28;20493;-68
2023/08/26 09:00:03;;;;;;;2.28;2.08;;;28.00;50.50;;;;;;5115650;28;20415;-70
2023/08/26 09:02:29;;;;;;;2.40;2.20;;;28.10;50.60;;;;;;5114710;28;20037;-70
2023/08/26 09:04:54;;;;;;;3.72;2.17;;;28.10;50.60;;;;;;5114274;28;20034;-70
2023/08/26 09:07:21;;;;;;;2.15;2.00;;;28.20;50.50;;;;;;5115990;28;20028;-69
2023/08/26 09:09:47;;;;;;;1.90;1.80;;;28.20;50.50;;;;;;5114389;28;20385;-68
2023/08/26 09:12:13;;;;;;;2.05;1.90;;;28.30;50.40;;;;;;5116139;28;20020;-68
2023/08/26 09:14:38;;;;;;;2.10;1.90;;;28.40;50.40;;;;;;5114283;28;20063;-69
2023/08/26 09:17:18;;;;;;;3.10;2.00;;;28.40;50.30;;;;;;5115516;28;20538;-68
2023/08/26 09:19:55;;;;;;;2.00;1.75;;;28.40;50.90;;;;;;5113985;28;20059;-68
2023/08/26 09:22:31;;;;;;;2.35;2.15;;;28.50;50.30;;;;;;5114923;28;20085;-69
2023/08/26 09:25:01;;;;;;;1.85;1.73;;;28.40;50.30;;;;;;5114753;28;20059;-69
2023/08/26 09:27:28;;;;;;;2.28;1.98;;;28.40;50.20;;;;;;5113337;28;20055;-68
2023/08/26 09:29:54;;;;;;;1.70;1.60;;;28.40;50.30;;;;;;5115676;28;20102;-68
2023/08/26 09:32:32;;;;;;;2.10;1.90;;;28.40;50.40;;;;;;5115711;28;20023;-69
2023/08/26 09:35:15;;;;;;;2.03;1.58;;;28.30;50.40;;;;;;5115015;28;20029;-69
2023/08/26 09:37:43;;;;;;;2.00;1.80;;;28.30;50.50;;;;;;5112334;28;20545;-69
2023/08/26 09:40:16;;;;;;;2.00;1.80;;;28.30;50.50;;;;;;5115128;28;20027;-68
2023/08/26 09:42:42;;;;;;;2.08;1.88;;;28.30;50.50;;;;;;5115231;28;20028;-68
2023/08/26 09:45:14;;;;;;;2.30;2.00;;;28.40;50.60;;;;;;5114827;28;20036;-67
2023/08/26 09:47:40;;;;;;;2.25;1.85;;;28.40;50.50;;;;;;5130931;27;20492;-68
2023/08/26 09:50:07;;;;;;;2.05;1.83;;;28.40;50.50;;;;;;5114825;28;20487;-68
2023/08/26 09:52:47;;;;;;;2.72;2.00;;;28.40;50.50;;;;;;5130742;27;20374;-67
2023/08/26 09:55:13;;;;;;;2.95;2.10;;;28.30;50.50;;;;;;5115028;28;20027;-67
2023/08/26 09:57:40;;;;;;;2.75;2.10;;;28.30;50.60;;;;;;5115620;28;20458;-68
2023/08/26 10:00:10;;;;;;;2.20;2.00;;;28.30;50.70;;;;;;5115061;28;20024;-68
2023/08/26 10:02:51;;;;;;;2.50;1.90;;;28.30;50.70;;;;;;5115297;28;20111;-68
2023/08/26 10:05:28;;;;;;;3.05;2.10;;;28.30;50.80;;;;;;5114944;28;20454;-67
2023/08/26 10:07:55;;;;;;;2.08;1.85;;;28.30;50.90;;;;;;5130680;27;20036;-69
2023/08/26 10:10:42;;;;;;;3.22;2.28;;;28.30;50.80;;;;;;5114212;28;20028;-70
2023/08/26 10:13:08;;;;;;;6.50;2.20;;;28.30;50.80;;;;;;5114887;28;20437;-69
2023/08/26 10:15:34;;;;;;;2.33;2.10;;;28.40;51.00;;;;;;5098322;28;20493;-73
2023/08/26 10:18:15;;;;;;;2.20;2.00;;;28.40;51.00;;;;;;5094318;28;20028;-71
2023/08/26 10:20:41;;;;;;;2.35;2.03;;;28.50;51.10;;;;;;5111406;28;20120;-74
2023/08/26 10:23:09;;;;;;;3.45;2.10;;;28.50;51.00;;;;;;5112009;28;20028;-70
2023/08/26 10:25:36;;;;;;;3.42;2.00;;;28.50;51.10;;;;;;5114278;28;20112;-69
2023/08/26 10:28:05;;;;;;;2.53;2.10;;;28.50;51.10;;;;;;5113448;28;20058;-70
2023/08/26 10:30:32;;;;;;;2.63;2.15;;;28.50;51.20;;;;;;5112648;28;20092;-70
2023/08/26 10:33:02;;;;;;;3.10;2.10;;;28.60;51.30;;;;;;5114428;28;20342;-70
2023/08/26 10:35:28;;;;;;;2.28;1.95;;;28.70;51.40;;;;;;5113357;28;20118;-69
2023/08/26 10:38:14;;;;;;;2.17;1.90;;;28.70;51.40;;;;;;5113221;28;20507;-70
2023/08/26 10:40:40;;;;;;;3.30;1.90;;;28.80;51.60;;;;;;5113152;28;20444;-70
2023/08/26 10:43:08;;;;;;;2.40;2.20;;;28.80;51.50;;;;;;5114596;28;20095;-70
2023/08/26 10:45:56;;;;;;;4.57;2.30;;;28.90;51.40;;;;;;5113364;28;20454;-70
2023/08/26 10:48:24;;;;;;;5.15;2.00;;;29.00;51.60;;;;;;5112890;28;20036;-70
2023/08/26 10:51:00;;;;;;;2.40;2.13;;;29.10;51.50;;;;;;5112977;28;20024;-72
2023/08/26 10:53:26;;;;;;;2.88;1.90;;;29.10;51.50;;;;;;5114134;28;20059;-69
2023/08/26 10:55:53;;;;;;;2.05;1.80;;;29.20;51.40;;;;;;5112961;28;20027;-69
2023/08/26 10:58:21;;;;;;;2.15;1.95;;;29.20;51.40;;;;;;5113148;28;20077;-69
2023/08/26 11:00:49;;;;;;;2.47;1.98;;;29.30;51.40;;;;;;5113933;28;20110;-70
2023/08/26 11:03:18;;;;;;;2.10;1.90;;;29.40;51.40;;;;;;5113014;28;20028;-71
2023/08/26 11:05:45;;;;;;;2.20;1.77;;;29.50;51.30;;;;;;5112716;28;20041;-69
2023/08/26 11:08:12;;;;;;;2.53;2.10;;;29.50;51.20;;;;;;5114251;28;20043;-69
2023/08/26 11:10:39;;;;;;;2.17;1.90;;;29.50;51.10;;;;;;5113995;28;20052;-70
2023/08/26 11:13:09;;;;;;;4.05;1.73;;;29.60;51.20;;;;;;5113961;28;20028;-69
2023/08/26 11:15:37;;;;;;;4.20;2.20;;;29.50;51.10;;;;;;5114516;28;20034;-70
2023/08/26 11:18:05;;;;;;;2.58;2.10;;;29.60;51.20;;;;;;5112911;28;20027;-69
2023/08/26 11:20:31;;;;;;;3.08;2.03;;;29.60;51.10;;;;;;5113849;28;20034;-71
2023/08/26 11:22:57;;;;;;;2.45;1.90;;;29.70;51.20;;;;;;5113068;28;20024;-71
2023/08/26 11:25:23;;;;;;;2.63;2.22;;;29.70;51.10;;;;;;5112521;28;20504;-69
2023/08/26 11:27:50;;;;;;;2.15;1.95;;;29.80;51.20;;;;;;5114006;28;20160;-69
2023/08/26 11:30:16;;;;;;;2.17;1.70;;;29.90;51.20;;;;;;5112619;28;20032;-70
2023/08/26 11:32:42;;;;;;;2.95;2.00;;;29.90;51.00;;;;;;5114577;28;20377;-69
2023/08/26 11:35:12;;;;;;;2.10;2.00;;;30.00;51.10;;;;;;5112665;28;20118;-69
2023/08/26 11:37:43;;;;;;;2.80;1.95;;;30.00;51.00;;;;;;5112663;28;20479;-70
2023/08/26 11:40:10;;;;;;;2.47;2.00;;;30.00;51.00;;;;;;5113771;28;20044;-69
2023/08/26 11:42:36;;;;;;;2.35;2.15;;;30.00;51.00;;;;;;5113816;28;20023;-70
2023/08/26 11:45:12;;;;;;;1.98;1.80;;;30.00;51.00;;;;;;5113739;28;20111;-70
2023/08/26 11:47:39;;;;;;;2.28;2.00;;;30.00;51.00;;;;;;5113007;28;20036;-70
2023/08/26 11:50:06;;;;;;;2.53;2.13;;;30.00;51.10;;;;;;5113590;28;20028;-71
2023/08/26 11:52:33;;;;;;;4.78;1.90;;;30.00;51.00;;;;;;5113502;28;20023;-69
2023/08/26 11:55:04;;;;;;;2.17;1.77;;;30.10;51.00;;;;;;5112195;28;20028;-70
2023/08/26 11:57:35;;;;;;;2.25;1.90;;;30.10;51.00;;;;;;5113651;28;20027;-70
2023/08/26 12:00:16;;;;;;;2.42;2.03;;;30.10;51.00;;;;;;5113781;28;20028;-71
2023/08/26 12:02:46;;;;;;;4.72;2.03;;;30.10;50.90;;;;;;5112492;28;20020;-71
2023/08/26 12:05:15;;;;;;;2.08;1.90;;;30.10;50.80;;;;;;5113596;28;20081;-72
2023/08/26 12:07:48;;;;;;;2.53;2.20;;;30.10;50.80;;;;;;5116947;28;20080;-70
2023/08/26 12:10:17;;;;;;;2.10;1.90;;;30.10;50.80;;;;;;5116682;28;20039;-70
2023/08/26 12:12:44;;;;;;;2.30;1.80;;;30.00;50.80;;;;;;5116279;28;20035;-70
2023/08/26 12:15:19;;;;;;;2.45;2.00;;;29.90;50.90;;;;;;5117297;28;20062;-70
2023/08/26 12:17:50;;;;;;;2.63;1.92;;;29.80;51.10;;;;;;5116980;28;20024;-71
2023/08/26 12:20:19;;;;;;;2.10;1.90;;;29.70;51.10;;;;;;5117496;28;20373;-70
2023/08/26 12:22:45;;;;;;;2.20;2.00;;;29.60;51.10;;;;;;5117360;28;20069;-69
2023/08/26 12:25:10;;;;;;;3.30;2.08;;;29.50;51.20;;;;;;5115792;28;20024;-70
2023/08/26 12:27:41;;;;;;;2.75;2.30;;;29.40;51.30;;;;;;5117269;28;20035;-69
2023/08/26 12:30:07;;;;;;;2.20;2.00;;;29.40;51.30;;;;;;5115507;28;20112;-69
2023/08/26 12:32:32;;;;;;;2.78;2.00;;;29.30;51.30;;;;;;5117070;28;20031;-69
2023/08/26 12:34:58;;;;;;;3.55;2.08;;;29.30;51.40;;;;;;5116771;28;20114;-70
2023/08/26 12:37:24;;;;;;;2.42;2.00;;;29.20;51.40;;;;;;5116630;28;20397;-69
2023/08/26 12:39:49;;;;;;;2.60;2.00;;;29.20;51.60;;;;;;5116740;28;20132;-69
2023/08/26 12:42:15;;;;;;;3.08;1.95;;;29.10;51.60;;;;;;5116698;28;20019;-69
2023/08/26 12:44:40;;;;;;;2.30;2.10;;;29.10;51.60;;;;;;5116666;28;20035;-70